createdAt,value
2022-12-18T00:00:31.398Z,42.47
2022-12-18T00:03:00.829Z,26.17
2022-12-18T00:05:30.307Z,38.55
2022-12-18T00:07:59.490Z,37.45
2022-12-18T00:10:28.722Z,30.83
2022-12-18T00:12:57.957Z,34.53
2022-12-18T00:15:27.234Z,27.40
2022-12-18T00:17:56.474Z,24.77
2022-12-18T00:20:26.714Z,30.30
2022-12-18T00:22:56.367Z,33.50
2022-12-18T00:25:26.063Z,34.97
2022-12-18T00:27:55.322Z,30.58
2022-12-18T00:30:24.605Z,31.10
2022-12-18T00:32:54.042Z,28.92
2022-12-18T00:35:23.388Z,41.13
2022-12-18T00:37:52.640Z,34.15
2022-12-18T00:40:21.899Z,34.83
2022-12-18T00:42:57.615Z,29.90
2022-12-18T00:45:32.768Z,29.52
2022-12-18T00:48:02.192Z,29.77
2022-12-18T00:50:31.395Z,23.05
2022-12-18T00:53:03.494Z,27.50
2022-12-18T00:55:32.781Z,20.25
2022-12-18T00:58:02.030Z,25.05
2022-12-18T01:00:31.272Z,27.48
2022-12-18T01:03:00.787Z,23.98
2022-12-18T01:05:30.100Z,25.98
2022-12-18T01:07:59.914Z,25.95
2022-12-18T01:10:29.159Z,26.30
2022-12-18T01:13:00.566Z,29.00
2022-12-18T01:15:29.886Z,20.27
2022-12-18T01:17:59.110Z,19.52
2022-12-18T01:20:29.980Z,20.35
2022-12-18T01:22:59.240Z,26.42
2022-12-18T01:25:29.934Z,22.45
2022-12-18T01:27:59.240Z,27.75
2022-12-18T01:30:28.640Z,23.98
2022-12-18T01:32:57.920Z,22.08
2022-12-18T01:35:27.986Z,20.25
2022-12-18T01:38:00.691Z,21.67
2022-12-18T01:40:31.296Z,20.17
2022-12-18T01:43:00.624Z,23.30
2022-12-18T01:45:35.136Z,20.38
2022-12-18T01:48:05.787Z,17.92
2022-12-18T01:50:40.625Z,23.48
2022-12-18T01:53:09.957Z,23.13
2022-12-18T01:55:42.588Z,20.15
2022-12-18T01:58:12.876Z,20.30
2022-12-18T02:00:42.500Z,25.27
2022-12-18T02:03:12.174Z,20.15
2022-12-18T02:05:49.337Z,24.90
2022-12-18T02:08:24.108Z,19.55
2022-12-18T02:11:03.955Z,19.27
2022-12-18T02:13:38.292Z,22.67
2022-12-18T02:16:07.953Z,19.75
2022-12-18T02:18:39.658Z,20.58
2022-12-18T02:21:17.004Z,19.83
2022-12-18T02:23:55.345Z,19.55
2022-12-18T02:26:30.076Z,19.58
2022-12-18T02:29:02.657Z,21.10
2022-12-18T02:31:35.307Z,18.52
2022-12-18T02:34:06.959Z,23.33
2022-12-18T02:36:42.031Z,18.23
2022-12-18T02:39:14.366Z,19.40
2022-12-18T02:41:52.580Z,22.98
2022-12-18T02:44:23.432Z,17.15
2022-12-18T02:46:53.977Z,19.23
2022-12-18T02:49:23.366Z,21.55
2022-12-18T02:51:52.875Z,22.15
2022-12-18T02:54:33.066Z,21.63
2022-12-18T02:57:05.047Z,14.73
2022-12-18T02:59:40.598Z,17.42
2022-12-18T03:02:10.365Z,19.50
2022-12-18T03:04:48.338Z,17.88
2022-12-18T03:07:22.453Z,20.75
2022-12-18T03:09:53.904Z,21.25
2022-12-18T03:12:35.786Z,15.27
2022-12-18T03:15:05.446Z,13.33
2022-12-18T03:17:36.115Z,19.45
2022-12-18T03:20:15.910Z,16.40
2022-12-18T03:22:46.691Z,11.25
2022-12-18T03:25:18.576Z,15.35
2022-12-18T03:27:51.257Z,18.20
2022-12-18T03:30:23.095Z,28.05
2022-12-18T03:33:00.098Z,14.73
2022-12-18T03:35:33.241Z,20.00
2022-12-18T03:40:53.474Z,16.00
2022-12-18T03:43:42.451Z,17.58
2022-12-18T03:46:19.402Z,13.15
2022-12-18T03:48:53.963Z,12.35
2022-12-18T03:51:30.038Z,20.35
2022-12-18T03:54:06.217Z,17.95
2022-12-18T03:56:42.818Z,17.40
2022-12-18T04:01:44.806Z,18.23
2022-12-18T04:04:16.591Z,14.40
2022-12-18T04:06:47.544Z,18.33
2022-12-18T04:09:18.024Z,13.40
2022-12-18T04:14:19.552Z,19.25
2022-12-18T04:16:53.182Z,13.52
2022-12-18T04:19:27.240Z,12.43
2022-12-18T04:21:57.182Z,18.00
2022-12-18T04:24:26.544Z,17.30
2022-12-18T04:27:06.696Z,16.70
2022-12-18T04:29:42.435Z,19.85
2022-12-18T04:32:12.055Z,20.40
2022-12-18T04:34:42.634Z,15.52
2022-12-18T04:37:12.282Z,16.02
2022-12-18T04:39:42.138Z,16.60
2022-12-18T04:42:18.554Z,21.15
2022-12-18T04:44:47.919Z,13.52
2022-12-18T04:47:17.133Z,18.02
2022-12-18T04:49:46.373Z,20.27
2022-12-18T04:52:15.888Z,19.70
2022-12-18T04:54:45.165Z,18.05
2022-12-18T04:57:14.583Z,11.63
2022-12-18T04:59:43.869Z,17.63
2022-12-18T05:02:13.196Z,16.33
2022-12-18T05:04:42.669Z,16.67
2022-12-18T05:07:11.915Z,20.50
2022-12-18T05:09:41.130Z,18.85
2022-12-18T05:12:11.011Z,17.50
2022-12-18T05:14:40.241Z,17.08
2022-12-18T05:17:09.526Z,18.83
2022-12-18T05:19:38.784Z,17.40
2022-12-18T05:22:08.036Z,18.40
2022-12-18T05:24:37.293Z,13.93
2022-12-18T05:27:06.501Z,16.45
2022-12-18T05:29:35.704Z,24.05
2022-12-18T05:32:04.965Z,21.63
2022-12-18T05:34:34.803Z,16.80
2022-12-18T05:37:04.029Z,20.80
2022-12-18T05:39:33.260Z,15.23
2022-12-18T05:42:02.509Z,17.75
2022-12-18T05:44:31.739Z,16.77
2022-12-18T05:47:01.020Z,18.00
2022-12-18T05:49:30.352Z,15.27
2022-12-18T05:51:59.612Z,20.17
2022-12-18T05:54:30.672Z,16.80
2022-12-18T05:56:59.898Z,13.50
2022-12-18T05:59:29.157Z,16.20
2022-12-18T06:01:58.626Z,13.80
2022-12-18T06:04:28.463Z,18.10
2022-12-18T06:06:57.730Z,19.48
2022-12-18T06:09:27.133Z,17.08
2022-12-18T06:11:56.368Z,16.90
2022-12-18T06:14:25.566Z,16.95
2022-12-18T06:16:55.066Z,24.30
2022-12-18T06:19:24.279Z,16.83
2022-12-18T06:21:54.173Z,17.58
2022-12-18T06:24:25.883Z,14.55
2022-12-18T06:26:55.403Z,17.88
2022-12-18T06:29:24.737Z,13.38
2022-12-18T06:31:53.981Z,17.85
2022-12-18T06:34:26.294Z,18.67
2022-12-18T06:36:55.474Z,12.45
2022-12-18T06:39:24.678Z,17.60
2022-12-18T06:41:54.008Z,22.55
2022-12-18T06:44:23.374Z,16.63
2022-12-18T06:46:52.569Z,18.67
2022-12-18T06:49:24.124Z,14.82
2022-12-18T06:51:55.698Z,15.65
2022-12-18T06:54:25.050Z,14.73
2022-12-18T06:56:54.662Z,14.63
2022-12-18T06:59:23.902Z,19.70
2022-12-18T07:01:56.101Z,16.05
2022-12-18T07:04:25.397Z,18.30
2022-12-18T07:06:54.633Z,23.45
2022-12-18T07:09:24.655Z,15.40
2022-12-18T07:11:54.984Z,16.20
2022-12-18T07:14:25.049Z,17.42
2022-12-18T07:16:54.329Z,17.63
2022-12-18T07:19:27.113Z,20.67
2022-12-18T07:24:25.486Z,13.85
2022-12-18T07:26:54.785Z,16.13
2022-12-18T07:29:24.774Z,18.05
2022-12-18T07:31:54.043Z,19.35
2022-12-18T07:34:23.350Z,19.13
2022-12-18T07:36:52.584Z,15.50
2022-12-18T07:39:21.817Z,14.10
2022-12-18T07:42:11.159Z,17.80
2022-12-18T07:44:42.828Z,13.45
2022-12-18T07:47:12.470Z,16.90
2022-12-18T07:49:41.823Z,16.73
2022-12-18T07:52:13.348Z,14.00
2022-12-18T07:54:43.105Z,21.67
2022-12-18T07:57:33.759Z,22.70
2022-12-18T08:00:01.731Z,14.38
2022-12-18T08:02:42.277Z,17.30
2022-12-18T08:05:11.902Z,17.58
2022-12-18T08:07:41.320Z,17.65
2022-12-18T08:10:10.841Z,22.58
2022-12-18T08:12:40.063Z,16.08
2022-12-18T08:15:09.645Z,23.55
2022-12-18T08:17:38.914Z,15.68
2022-12-18T08:20:08.288Z,14.75
2022-12-18T08:22:42.752Z,15.55
2022-12-18T08:25:12.327Z,16.40
2022-12-18T08:27:41.537Z,19.63
2022-12-18T08:30:11.048Z,15.50
2022-12-18T08:32:40.327Z,15.93
2022-12-18T08:35:09.758Z,21.33
2022-12-18T08:37:39.172Z,19.00
2022-12-18T08:40:08.752Z,24.52
2022-12-18T08:42:50.561Z,14.65
2022-12-18T08:45:19.814Z,18.73
2022-12-18T08:47:49.035Z,16.88
2022-12-18T08:50:21.408Z,18.33
2022-12-18T08:52:50.774Z,21.27
2022-12-18T08:55:20.073Z,15.57
2022-12-18T08:57:53.695Z,18.75
2022-12-18T09:00:25.664Z,22.33
2022-12-18T09:02:55.231Z,15.70
2022-12-18T09:05:24.734Z,16.63
2022-12-18T09:07:54.637Z,16.20
2022-12-18T09:10:23.995Z,14.80
2022-12-18T09:12:57.159Z,17.63
2022-12-18T09:15:26.363Z,18.05
2022-12-18T09:17:55.589Z,15.85
2022-12-18T09:20:25.541Z,22.75
2022-12-18T09:22:54.898Z,19.08
2022-12-18T09:25:24.104Z,18.13
2022-12-18T09:27:54.420Z,17.88
2022-12-18T09:30:23.710Z,17.63
2022-12-18T09:32:53.038Z,17.90
2022-12-18T09:35:22.278Z,24.92
2022-12-18T09:37:51.496Z,19.63
2022-12-18T09:40:23.007Z,14.18
2022-12-18T09:42:55.819Z,17.57
2022-12-18T09:45:25.337Z,17.27
2022-12-18T09:47:56.230Z,18.17
2022-12-18T09:50:36.804Z,14.27
2022-12-18T09:53:10.219Z,17.85
2022-12-18T09:55:41.607Z,17.48
2022-12-18T09:58:11.614Z,17.38
2022-12-18T10:00:40.922Z,17.10
2022-12-18T10:03:14.662Z,16.85
2022-12-18T10:06:16.965Z,13.93
2022-12-18T10:09:03.942Z,16.27
2022-12-18T10:11:51.936Z,20.83
2022-12-18T10:14:40.225Z,18.48
2022-12-18T10:17:10.424Z,15.00
2022-12-18T10:19:42.598Z,17.25
2022-12-18T10:22:17.549Z,15.38
2022-12-18T10:25:05.632Z,18.60
2022-12-18T10:27:36.199Z,17.92
2022-12-18T10:30:08.549Z,13.60
2022-12-18T10:32:37.768Z,19.80
2022-12-18T10:35:08.835Z,19.48
2022-12-18T10:37:38.074Z,16.85
2022-12-18T10:40:18.221Z,15.95
2022-12-18T10:42:51.555Z,16.65
2022-12-18T10:45:21.239Z,14.80
2022-12-18T10:47:51.680Z,18.70
2022-12-18T10:50:47.128Z,17.45
2022-12-18T10:53:24.071Z,16.35
2022-12-18T10:55:54.699Z,14.98
2022-12-18T10:58:32.531Z,18.00
2022-12-18T11:01:06.385Z,19.75
2022-12-18T11:03:37.846Z,18.10
2022-12-18T11:06:12.064Z,21.13
2022-12-18T11:08:42.683Z,18.52
2022-12-18T11:11:25.605Z,21.25
2022-12-18T11:16:24.901Z,15.45
2022-12-18T11:18:54.186Z,19.27
2022-12-18T11:21:23.845Z,15.20
2022-12-18T11:23:54.593Z,18.95
2022-12-18T11:26:24.230Z,21.55
2022-12-18T11:28:55.439Z,22.65
2022-12-18T11:31:29.335Z,16.60
2022-12-18T11:36:51.880Z,15.20
2022-12-18T11:39:23.465Z,16.35
2022-12-18T11:42:13.544Z,17.75
2022-12-18T11:44:46.196Z,18.42
2022-12-18T11:47:29.411Z,20.40
2022-12-18T11:49:59.748Z,18.80
2022-12-18T11:52:39.703Z,15.52
2022-12-18T11:55:16.166Z,15.52
2022-12-18T11:57:54.075Z,16.90
2022-12-18T12:00:24.243Z,17.10
2022-12-18T12:02:56.338Z,18.13
2022-12-18T12:05:25.572Z,16.17
2022-12-18T12:07:56.356Z,18.65
2022-12-18T12:10:44.430Z,18.33
2022-12-18T12:13:32.205Z,13.68
2022-12-18T12:16:10.368Z,16.85
2022-12-18T12:18:39.660Z,16.90
2022-12-18T12:21:24.344Z,19.42
2022-12-18T12:24:00.736Z,19.70
2022-12-18T12:26:49.034Z,18.90
2022-12-18T12:29:21.327Z,23.52
2022-12-18T12:32:07.199Z,16.73
2022-12-18T12:34:42.546Z,18.30
2022-12-18T12:37:32.042Z,20.33
2022-12-18T12:40:15.380Z,16.35
2022-12-18T12:43:07.469Z,20.23
2022-12-18T12:45:39.660Z,21.50
2022-12-18T12:48:11.012Z,19.45
2022-12-18T12:50:42.574Z,19.40
2022-12-18T12:53:15.281Z,16.58
2022-12-18T12:55:45.352Z,20.27
2022-12-18T12:58:26.980Z,18.60
2022-12-18T13:00:56.855Z,19.33
2022-12-18T13:03:43.676Z,21.92
2022-12-18T13:06:18.309Z,19.48
2022-12-18T13:09:00.984Z,13.57
2022-12-18T13:11:47.504Z,13.13
2022-12-18T13:14:24.187Z,19.40
2022-12-18T13:16:54.788Z,19.83
2022-12-18T13:19:31.645Z,18.42
2022-12-18T13:22:00.959Z,21.45
2022-12-18T13:24:31.813Z,21.17
2022-12-18T13:27:01.027Z,19.20
2022-12-18T13:29:46.905Z,18.20
2022-12-18T13:32:24.071Z,21.38
2022-12-18T13:35:32.703Z,19.45
2022-12-18T13:38:02.152Z,20.38
2022-12-18T13:40:43.334Z,18.65
2022-12-18T13:43:21.450Z,18.10
2022-12-18T13:46:02.810Z,16.05
2022-12-18T13:48:34.873Z,18.52
2022-12-18T13:51:04.543Z,18.80
2022-12-18T13:53:40.017Z,22.15
2022-12-18T13:56:09.750Z,17.48
2022-12-18T13:58:39.895Z,23.83
2022-12-18T14:01:19.897Z,19.63
2022-12-18T14:03:49.277Z,18.50
2022-12-18T14:06:20.388Z,20.23
2022-12-18T14:08:51.287Z,21.10
2022-12-18T14:11:23.586Z,19.83
2022-12-18T14:13:55.960Z,20.17
2022-12-18T14:16:25.686Z,22.42
2022-12-18T14:19:05.545Z,22.75
2022-12-18T14:21:48.982Z,22.73
2022-12-18T14:24:20.003Z,22.10
2022-12-18T14:26:50.449Z,19.23
2022-12-18T14:29:30.553Z,19.30
2022-12-18T14:32:14.905Z,18.70
2022-12-18T14:34:47.300Z,29.77
2022-12-18T14:37:17.542Z,21.15
2022-12-18T14:39:57.700Z,16.75
2022-12-18T14:42:29.277Z,23.90
2022-12-18T14:45:17.424Z,19.92
2022-12-18T14:47:47.093Z,21.60
2022-12-18T14:50:17.620Z,21.30
2022-12-18T14:52:47.123Z,21.52
2022-12-18T14:55:20.459Z,20.20
2022-12-18T14:57:52.468Z,21.77
2022-12-18T15:00:23.044Z,22.38
2022-12-18T15:02:54.784Z,20.85
2022-12-18T15:05:34.305Z,23.27
2022-12-18T15:08:04.140Z,21.35
2022-12-18T15:10:34.725Z,18.48
2022-12-18T15:13:04.512Z,24.33
2022-12-18T15:15:37.015Z,24.10
2022-12-18T15:18:12.754Z,23.30
2022-12-18T15:20:49.545Z,22.63
2022-12-18T15:23:26.119Z,20.95
2022-12-18T15:26:02.425Z,26.88
2022-12-18T15:28:41.693Z,30.83
2022-12-18T15:31:18.249Z,24.98
2022-12-18T15:33:53.895Z,27.85
2022-12-18T15:36:26.113Z,26.63
2022-12-18T15:39:04.660Z,23.98
2022-12-18T15:41:36.450Z,25.73
2022-12-18T15:44:03.858Z,28.25
2022-12-18T15:46:33.352Z,34.55
2022-12-18T15:49:03.140Z,22.75
2022-12-18T15:51:35.469Z,20.85
2022-12-18T15:54:05.723Z,29.85
2022-12-18T15:56:47.725Z,24.38
2022-12-18T15:59:19.594Z,25.88
2022-12-18T16:01:50.296Z,23.97
2022-12-18T16:04:21.575Z,20.63
2022-12-18T16:09:42.959Z,20.60
2022-12-18T16:12:19.133Z,27.33
2022-12-18T16:14:48.791Z,23.20
2022-12-18T16:17:18.783Z,25.42
2022-12-18T16:19:48.076Z,21.27
2022-12-18T16:22:35.490Z,28.08
2022-12-18T16:25:06.212Z,32.38
2022-12-18T16:27:35.443Z,22.70
2022-12-18T16:30:04.724Z,25.08
2022-12-18T16:32:34.018Z,24.30
2022-12-18T16:35:03.864Z,21.92
2022-12-18T16:37:33.293Z,25.42
2022-12-18T16:40:03.025Z,24.75
2022-12-18T16:42:32.248Z,26.55
2022-12-18T16:45:01.507Z,27.42
2022-12-18T16:47:30.699Z,21.85
2022-12-18T16:49:59.897Z,24.50
2022-12-18T16:52:30.326Z,23.58
2022-12-18T16:54:59.677Z,24.52
2022-12-18T16:57:28.962Z,28.75
2022-12-18T17:00:04.435Z,23.58
2022-12-18T17:02:34.922Z,34.47
2022-12-18T17:05:04.317Z,28.90
2022-12-18T17:07:33.568Z,29.92
2022-12-18T17:10:04.056Z,28.95
2022-12-18T17:12:34.039Z,28.25
2022-12-18T17:15:03.310Z,22.95
2022-12-18T17:17:32.636Z,26.33
2022-12-18T17:20:02.130Z,26.60
2022-12-18T17:22:31.346Z,27.35
2022-12-18T17:25:00.613Z,27.13
2022-12-18T17:27:29.824Z,26.23
2022-12-18T17:29:59.002Z,34.42
2022-12-18T17:32:28.185Z,29.35
2022-12-18T17:34:58.252Z,23.30
2022-12-18T17:37:29.747Z,24.67
2022-12-18T17:39:58.923Z,25.30
2022-12-18T17:42:29.394Z,25.33
2022-12-18T17:44:58.584Z,30.45
2022-12-18T17:47:27.949Z,27.58
2022-12-18T17:49:57.201Z,25.85
2022-12-18T17:52:26.624Z,31.08
2022-12-18T17:54:57.157Z,26.27
2022-12-18T17:57:26.405Z,25.20
2022-12-18T17:59:56.014Z,25.13
2022-12-18T18:02:25.492Z,32.83
2022-12-18T18:04:55.242Z,30.23
2022-12-18T18:07:24.468Z,28.70
2022-12-18T18:09:53.728Z,30.65
2022-12-18T18:12:35.473Z,25.67
2022-12-18T18:15:05.141Z,30.55
2022-12-18T18:17:34.918Z,28.65
2022-12-18T18:20:04.132Z,29.88
2022-12-18T18:22:33.400Z,35.45
2022-12-18T18:25:03.726Z,27.20
2022-12-18T18:27:38.935Z,27.08
2022-12-18T18:30:08.660Z,27.45
2022-12-18T18:32:40.202Z,27.48
2022-12-18T18:35:24.559Z,34.55
2022-12-18T18:38:00.526Z,25.65
2022-12-18T18:40:29.781Z,29.67
2022-12-18T18:42:59.216Z,29.08
2022-12-18T18:45:28.513Z,33.97
2022-12-18T18:47:58.955Z,35.25
2022-12-18T18:50:28.288Z,30.67
2022-12-18T18:52:57.580Z,33.70
2022-12-18T18:55:26.851Z,30.40
2022-12-18T18:57:56.950Z,29.45
2022-12-18T19:00:26.281Z,28.95
2022-12-18T19:05:36.519Z,26.85
2022-12-18T19:08:05.858Z,26.02
2022-12-18T19:10:35.067Z,31.15
2022-12-18T19:13:25.517Z,34.42
2022-12-18T19:15:56.184Z,26.17
2022-12-18T19:18:25.981Z,30.95
2022-12-18T19:21:03.240Z,28.05
2022-12-18T19:23:33.196Z,26.73
2022-12-18T19:26:27.056Z,30.17
2022-12-18T19:28:52.836Z,33.97
2022-12-18T19:31:26.190Z,31.48
2022-12-18T19:33:57.332Z,28.88
2022-12-18T19:36:27.983Z,30.13
2022-12-18T19:38:59.775Z,34.83
2022-12-18T19:41:31.334Z,30.02
2022-12-18T19:44:07.479Z,30.83
2022-12-18T19:46:38.329Z,28.40
2022-12-18T19:49:11.373Z,33.58
2022-12-18T19:51:45.560Z,33.97
2022-12-18T19:54:17.465Z,32.55
2022-12-18T19:56:47.301Z,34.15
2022-12-18T19:59:16.930Z,25.73
2022-12-18T20:01:46.258Z,29.30
2022-12-18T20:04:15.657Z,27.70
2022-12-18T20:06:52.686Z,30.40
2022-12-18T20:09:22.830Z,30.83
2022-12-18T20:11:55.941Z,35.25
2022-12-18T20:16:54.667Z,29.17
2022-12-18T20:19:24.601Z,35.03
2022-12-18T20:21:54.139Z,30.25
2022-12-18T20:24:23.453Z,32.15
2022-12-18T20:26:52.640Z,35.90
2022-12-18T20:29:21.874Z,29.70
2022-12-18T20:31:51.143Z,33.92
2022-12-18T20:34:22.135Z,33.70
2022-12-18T20:36:52.159Z,28.00
2022-12-18T20:39:21.716Z,32.67
2022-12-18T20:41:51.862Z,33.60
2022-12-18T20:44:23.861Z,35.42
2022-12-18T20:46:58.083Z,34.53
2022-12-18T20:49:28.111Z,35.88
2022-12-18T20:51:59.461Z,29.25
2022-12-18T20:54:29.344Z,37.17
2022-12-18T20:56:59.243Z,30.50
2022-12-18T20:59:28.530Z,34.83
2022-12-18T21:01:58.326Z,32.22
2022-12-18T21:04:28.069Z,41.40
2022-12-18T21:07:02.356Z,33.65
2022-12-18T21:09:37.436Z,32.30
2022-12-18T21:12:20.825Z,36.40
2022-12-18T21:14:50.035Z,44.85
2022-12-18T21:17:19.638Z,38.15
2022-12-18T21:19:48.876Z,34.90
2022-12-18T21:22:18.657Z,35.58
2022-12-18T21:24:48.241Z,42.40
2022-12-18T21:27:18.130Z,37.97
2022-12-18T21:29:47.740Z,39.22
2022-12-18T21:32:18.549Z,37.75
2022-12-18T21:34:48.718Z,29.65
2022-12-18T21:37:18.176Z,39.13
2022-12-18T21:39:49.525Z,36.90
2022-12-18T21:42:31.239Z,34.58
2022-12-18T21:45:00.594Z,42.40
2022-12-18T21:47:29.841Z,37.20
2022-12-18T21:49:59.070Z,42.33
2022-12-18T21:52:31.464Z,38.20
2022-12-18T21:55:08.509Z,36.85
2022-12-18T21:57:39.674Z,45.38
2022-12-18T22:00:10.029Z,40.85
2022-12-18T22:02:43.562Z,45.92
2022-12-18T22:05:12.947Z,38.88
2022-12-18T22:07:42.564Z,36.72
2022-12-18T22:10:12.013Z,44.00
2022-12-18T22:12:44.477Z,37.88
2022-12-18T22:15:21.041Z,41.03
2022-12-18T22:17:51.031Z,43.38
2022-12-18T22:20:21.036Z,36.35
2022-12-18T22:22:51.832Z,40.53
2022-12-18T22:25:21.461Z,39.17
2022-12-18T22:28:04.738Z,41.83
2022-12-18T22:30:33.973Z,41.13
2022-12-18T22:33:03.985Z,43.47
2022-12-18T22:35:33.271Z,42.85
2022-12-18T22:38:02.765Z,44.22
2022-12-18T22:40:32.044Z,43.50
2022-12-18T22:43:01.468Z,42.63
2022-12-18T22:45:30.768Z,47.80
2022-12-18T22:48:01.923Z,37.60
2022-12-18T22:50:33.781Z,43.05
2022-12-18T22:53:03.040Z,37.58
2022-12-18T22:55:32.303Z,43.35
2022-12-18T22:58:01.549Z,39.85
2022-12-18T23:00:30.788Z,42.13
2022-12-18T23:03:01.164Z,38.25
2022-12-18T23:05:31.563Z,44.30
2022-12-18T23:08:01.044Z,36.85
2022-12-18T23:10:30.406Z,44.38
2022-12-18T23:12:59.711Z,39.58
2022-12-18T23:15:28.954Z,48.72
2022-12-18T23:17:59.102Z,42.33
2022-12-18T23:20:29.637Z,38.50
2022-12-18T23:22:59.161Z,44.22
2022-12-18T23:25:28.780Z,63.78
2022-12-18T23:27:58.110Z,37.22
2022-12-18T23:30:27.437Z,39.58
2022-12-18T23:32:56.713Z,44.33
2022-12-18T23:35:26.085Z,49.28
2022-12-18T23:37:58.616Z,40.42
2022-12-18T23:40:29.437Z,43.80
2022-12-18T23:42:58.772Z,39.75
2022-12-18T23:45:28.019Z,37.03
2022-12-18T23:47:57.293Z,41.45
2022-12-18T23:50:29.875Z,44.40
2022-12-18T23:53:04.941Z,42.25
2022-12-18T23:55:35.273Z,38.72
2022-12-18T23:58:04.523Z,38.15
